Time;durP1;ratioP1;P1;durP2;ratioP2;P2;SDS_P1;SDS_P2;PMS_P1;PMS_P2;Temp;Humidity;BMP_temperature;BMP_pressure;BME280_temperature;BME280_humidity;BME280_pressure;Samples;Min_cycle;Max_cycle;Signal;HPM_P1;HPM_P2
2022/07/31 00:01:30;;;;;;;20.30;9.55;;;;;;;19.45;96.52;101572.41;5053508;28;20033;-63
2022/07/31 00:03:55;;;;;;;20.73;9.70;;;;;;;19.39;97.94;101573.41;5053251;28;20025;-64
2022/07/31 00:06:21;;;;;;;21.25;10.10;;;;;;;19.34;98.28;101575.31;5053675;28;20047;-64
2022/07/31 00:08:48;;;;;;;19.98;9.93;;;;;;;19.26;97.87;101571.91;5053158;28;20017;-64
2022/07/31 00:11:13;;;;;;;21.27;10.43;;;;;;;19.31;97.35;101575.38;5053234;28;20123;-64
2022/07/31 00:13:39;;;;;;;20.83;10.20;;;;;;;19.30;98.09;101568.25;5053133;28;20057;-64
2022/07/31 00:16:04;;;;;;;20.65;10.27;;;;;;;19.30;98.37;101569.13;5052971;28;20021;-64
2022/07/31 00:18:29;;;;;;;22.38;11.20;;;;;;;19.31;97.55;101567.34;5052628;28;20037;-63
2022/07/31 00:20:55;;;;;;;21.13;10.52;;;;;;;19.35;98.00;101563.66;5053166;28;20056;-64
2022/07/31 00:23:20;;;;;;;20.85;10.27;;;;;;;19.39;97.67;101559.13;5052919;28;20025;-64
2022/07/31 00:25:45;;;;;;;21.20;10.30;;;;;;;19.33;100.00;101561.00;5052955;28;20059;-63
2022/07/31 00:28:10;;;;;;;22.80;10.60;;;;;;;19.37;100.00;101560.94;5052881;28;20475;-64
2022/07/31 00:30:36;;;;;;;21.13;10.60;;;;;;;19.37;100.00;101560.94;5053066;28;20072;-63
2022/07/31 00:33:01;;;;;;;22.67;10.68;;;;;;;19.36;100.00;101559.22;5052937;28;20116;-63
2022/07/31 00:35:26;;;;;;;23.08;10.95;;;;;;;19.34;97.59;101564.59;5052971;28;20459;-63
2022/07/31 00:37:52;;;;;;;22.15;10.45;;;;;;;19.29;96.56;101563.78;5053044;28;20036;-63
2022/07/31 00:40:17;;;;;;;21.23;10.57;;;;;;;19.18;96.48;101566.72;5053102;28;20063;-64
2022/07/31 00:42:42;;;;;;;22.63;10.63;;;;;;;19.24;99.25;101573.75;5052927;28;20476;-63
2022/07/31 00:45:09;;;;;;;20.25;10.27;;;;;;;19.26;98.05;101562.06;5052476;28;20033;-63
2022/07/31 00:47:35;;;;;;;21.25;11.05;;;;;;;19.29;97.69;101571.84;5053125;28;20397;-63
2022/07/31 00:50:00;;;;;;;22.55;10.73;;;;;;;19.26;98.16;101564.75;5052503;28;20032;-63
2022/07/31 00:52:25;;;;;;;22.67;10.88;;;;;;;19.25;99.11;101564.78;5052323;28;20029;-64
2022/07/31 00:54:51;;;;;;;20.95;11.20;;;;;;;19.21;98.19;101555.03;5052995;28;20100;-65
2022/07/31 00:57:16;;;;;;;22.90;11.00;;;;;;;19.27;99.27;101555.78;5052401;28;20424;-64
2022/07/31 00:59:42;;;;;;;21.52;11.05;;;;;;;19.09;96.46;101550.78;5052679;28;20032;-64
2022/07/31 01:02:08;;;;;;;23.02;11.45;;;;;;;19.00;96.66;101551.88;5052873;28;20365;-64
2022/07/31 01:04:34;;;;;;;23.23;11.15;;;;;;;18.87;97.62;101547.66;5052433;28;20465;-65
2022/07/31 01:06:59;;;;;;;22.25;10.82;;;;;;;18.89;99.36;101553.88;5052482;28;20021;-64
2022/07/31 01:09:25;;;;;;;22.92;10.93;;;;;;;19.00;98.29;101549.19;5052771;28;20523;-65
2022/07/31 01:11:56;;;;;;;22.15;10.75;;;;;;;18.90;99.75;101551.19;5052293;28;20053;-65
2022/07/31 01:14:26;;;;;;;21.58;10.68;;;;;;;18.86;99.65;101554.81;5052717;28;20029;-64
2022/07/31 01:16:53;;;;;;;23.48;11.52;;;;;;;18.88;98.75;101557.47;5052418;28;20088;-64
2022/07/31 01:19:40;;;;;;;22.38;11.15;;;;;;;18.87;98.24;101550.34;5052404;28;20442;-64
2022/07/31 01:22:23;;;;;;;22.33;11.70;;;;;;;18.75;97.75;101554.09;5048645;28;20025;-65
2022/07/31 01:25:16;;;;;;;22.85;11.82;;;;;;;18.75;96.45;101552.28;5050160;28;20063;-64
2022/07/31 01:28:11;;;;;;;21.27;10.88;;;;;;;18.72;96.90;101552.34;5049657;28;20446;-64
2022/07/31 01:30:49;;;;;;;21.50;11.23;;;;;;;18.74;97.46;101549.66;5050087;28;20352;-64
2022/07/31 01:33:19;;;;;;;23.35;11.90;;;;;;;18.82;97.29;101547.72;5053660;28;20048;-65
2022/07/31 01:35:51;;;;;;;23.75;12.90;;;;;;;18.76;96.39;101548.72;5056413;28;20435;-65
2022/07/31 01:38:22;;;;;;;22.80;12.20;;;;;;;18.79;97.20;101547.78;5056180;28;20025;-65
2022/07/31 01:40:56;;;;;;;23.00;12.27;;;;;;;18.65;98.30;101550.69;5056100;28;20535;-64
2022/07/31 01:43:25;;;;;;;23.17;11.80;;;;;;;18.75;99.75;101546.06;5056089;28;20033;-65
2022/07/31 01:45:57;;;;;;;22.20;11.90;;;;;;;18.71;100.00;101545.25;5055754;28;20539;-64
2022/07/31 01:48:24;;;;;;;22.55;12.10;;;;;;;18.60;100.00;101542.75;5055976;28;20091;-64
2022/07/31 01:50:52;;;;;;;22.98;12.13;;;;;;;18.50;100.00;101541.16;5056167;28;20079;-65
2022/07/31 01:53:21;;;;;;;22.63;12.07;;;;;;;18.54;100.00;101542.00;5055472;28;20049;-64
2022/07/31 01:55:48;;;;;;;24.13;11.90;;;;;;;18.50;100.00;101545.63;5055978;28;20017;-65
2022/07/31 01:58:17;;;;;;;23.23;12.68;;;;;;;18.45;100.00;101540.38;5056238;28;20379;-65
2022/07/31 02:00:44;;;;;;;22.85;12.35;;;;;;;18.49;100.00;101539.38;5055690;28;20017;-65
2022/07/31 02:03:11;;;;;;;22.95;12.68;;;;;;;18.47;100.00;101538.53;5055772;28;20029;-64
2022/07/31 02:05:39;;;;;;;24.88;12.63;;;;;;;18.47;100.00;101536.72;5055555;28;20479;-65
2022/07/31 02:08:06;;;;;;;22.65;12.52;;;;;;;18.43;100.00;101540.38;5051910;28;20036;-65
2022/07/31 02:10:33;;;;;;;23.20;12.45;;;;;;;18.40;100.00;101545.78;5055631;28;20037;-65
2022/07/31 02:12:59;;;;;;;21.75;12.00;;;;;;;18.39;100.00;101530.66;5055625;28;20033;-64
2022/07/31 02:15:25;;;;;;;22.98;12.63;;;;;;;18.34;100.00;101535.19;5055442;28;20025;-64
2022/07/31 02:17:53;;;;;;;24.33;13.13;;;;;;;18.24;100.00;101537.13;5055221;28;20028;-65
2022/07/31 02:20:19;;;;;;;22.98;13.00;;;;;;;18.15;100.00;101539.09;5055260;28;20059;-64
2022/07/31 02:22:45;;;;;;;23.88;13.38;;;;;;;18.09;100.00;101534.72;5055553;28;20028;-65
2022/07/31 02:25:10;;;;;;;23.50;13.60;;;;;;;18.09;100.00;101529.38;5055177;28;20441;-65
2022/07/31 02:27:38;;;;;;;23.75;13.77;;;;;;;18.08;100.00;101536.50;5055433;28;20036;-64
2022/07/31 02:30:05;;;;;;;25.08;14.02;;;;;;;17.98;100.00;101537.53;5050859;28;20035;-64
2022/07/31 02:32:32;;;;;;;23.95;14.48;;;;;;;17.95;100.00;101532.25;5055289;28;20033;-65
2022/07/31 02:35:00;;;;;;;24.13;14.35;;;;;;;17.87;100.00;101547.50;5054998;28;20025;-64
2022/07/31 02:37:26;;;;;;;25.15;14.50;;;;;;;17.86;100.00;101540.38;5055416;28;20036;-65
2022/07/31 02:39:53;;;;;;;24.52;13.88;;;;;;;17.87;100.00;101536.81;5054993;28;20380;-64
2022/07/31 02:42:20;;;;;;;23.52;13.82;;;;;;;17.94;100.00;101541.19;5053890;28;20052;-64
2022/07/31 02:44:47;;;;;;;23.13;13.88;;;;;;;17.92;100.00;101532.28;5054964;28;20036;-64
2022/07/31 02:47:12;;;;;;;23.60;13.27;;;;;;;17.91;100.00;101534.09;5055047;28;20026;-64
2022/07/31 02:49:38;;;;;;;23.90;13.80;;;;;;;17.90;100.00;101534.13;5054625;28;20051;-64
2022/07/31 02:52:05;;;;;;;25.52;14.30;;;;;;;17.95;100.00;101537.59;5054950;28;20429;-64
2022/07/31 02:54:32;;;;;;;24.98;14.40;;;;;;;18.02;100.00;101530.38;5054461;28;20068;-64
2022/07/31 02:57:00;;;;;;;24.38;13.65;;;;;;;18.06;100.00;101529.41;5054605;28;20061;-64
2022/07/31 02:59:25;;;;;;;24.00;13.88;;;;;;;18.06;100.00;101518.72;5054465;28;20068;-64
2022/07/31 03:01:51;;;;;;;25.20;14.38;;;;;;;18.06;100.00;101524.94;5054438;28;20104;-64
2022/07/31 03:04:16;;;;;;;24.42;13.85;;;;;;;18.19;100.00;101514.03;5054597;28;20024;-63
2022/07/31 03:06:42;;;;;;;25.75;14.40;;;;;;;18.17;100.00;101507.84;5054612;28;20562;-64
2022/07/31 03:09:07;;;;;;;25.77;14.27;;;;;;;18.19;100.00;101520.28;5054423;28;20106;-64
2022/07/31 03:11:33;;;;;;;24.13;14.25;;;;;;;18.20;100.00;101510.44;5054774;28;20472;-64
2022/07/31 03:14:00;;;;;;;24.75;14.00;;;;;;;18.19;100.00;101512.25;5054208;28;20388;-64
2022/07/31 03:16:28;;;;;;;23.30;13.15;;;;;;;18.25;100.00;101519.28;5054458;28;20028;-64
2022/07/31 03:18:55;;;;;;;24.83;13.95;;;;;;;18.03;100.00;101508.94;5054444;28;20021;-64
2022/07/31 03:21:21;;;;;;;24.50;13.07;;;;;;;17.81;100.00;101508.38;5054531;28;20028;-63
2022/07/31 03:23:47;;;;;;;23.45;13.25;;;;;;;17.63;100.00;101506.84;5054069;28;20029;-64
2022/07/31 03:26:13;;;;;;;26.17;13.90;;;;;;;17.47;100.00;101510.63;5054240;28;20082;-64
2022/07/31 03:28:39;;;;;;;24.08;14.13;;;;;;;17.37;100.00;101513.44;5053967;28;20116;-64
2022/07/31 03:31:06;;;;;;;23.77;14.00;;;;;;;17.33;100.00;101508.13;5049936;28;20112;-63
2022/07/31 03:33:32;;;;;;;24.58;14.38;;;;;;;17.35;100.00;101514.38;5054232;28;20029;-64
2022/07/31 03:35:57;;;;;;;24.17;14.52;;;;;;;17.32;100.00;101509.06;5054006;28;20036;-63
2022/07/31 03:38:23;;;;;;;25.38;15.07;;;;;;;17.31;100.00;101504.63;5053883;28;20106;-64
2022/07/31 03:40:48;;;;;;;24.02;14.82;;;;;;;17.36;100.00;101506.31;5053964;28;20045;-63
2022/07/31 03:43:15;;;;;;;23.98;15.27;;;;;;;17.40;100.00;101502.72;5053939;28;20479;-64
2022/07/31 03:45:41;;;;;;;25.75;15.65;;;;;;;17.42;100.00;101505.38;5053584;28;20017;-64
2022/07/31 03:48:07;;;;;;;25.45;15.50;;;;;;;17.40;100.00;101504.47;5054110;28;20033;-64
2022/07/31 03:50:36;;;;;;;26.80;15.95;;;;;;;17.35;100.00;101506.34;5053421;28;20106;-63
2022/07/31 03:53:03;;;;;;;26.20;15.18;;;;;;;17.41;100.00;101508.94;5053376;28;20053;-63
2022/07/31 03:55:29;;;;;;;25.63;15.10;;;;;;;17.45;100.00;101504.44;5053629;28;20483;-63
2022/07/31 03:57:56;;;;;;;26.77;15.75;;;;;;;17.43;100.00;101509.81;5053374;28;20024;-64
2022/07/31 04:00:25;;;;;;;25.35;15.90;;;;;;;17.36;100.00;101505.47;5053406;28;20048;-64
2022/07/31 04:02:54;;;;;;;26.45;16.02;;;;;;;17.34;100.00;101497.44;5053492;28;20107;-64
2022/07/31 04:05:19;;;;;;;26.13;16.23;;;;;;;17.36;100.00;101500.97;5053751;28;20059;-64
2022/07/31 04:07:44;;;;;;;26.38;16.20;;;;;;;17.40;100.00;101500.03;5053587;28;20049;-64
2022/07/31 04:10:10;;;;;;;26.75;16.13;;;;;;;17.32;100.00;101506.41;5053383;28;20115;-64
2022/07/31 04:12:35;;;;;;;25.50;15.32;;;;;;;17.34;100.00;101510.78;5053143;28;20116;-64
2022/07/31 04:15:00;;;;;;;26.00;15.07;;;;;;;17.31;100.00;101507.28;5053251;28;20036;-64
2022/07/31 04:17:25;;;;;;;24.58;15.15;;;;;;;17.26;100.00;101512.69;5053424;28;20439;-64
2022/07/31 04:19:51;;;;;;;24.85;15.18;;;;;;;17.22;100.00;101518.97;5085276;28;20383;-64
2022/07/31 04:22:16;;;;;;;24.42;14.88;;;;;;;17.22;100.00;101514.50;5052965;28;20025;-63
2022/07/31 04:24:41;;;;;;;25.15;14.65;;;;;;;17.25;100.00;101518.94;5053206;28;20100;-65
2022/07/31 04:27:07;;;;;;;25.00;14.52;;;;;;;17.30;100.00;101521.53;5053014;28;20104;-64
2022/07/31 04:29:33;;;;;;;24.20;14.55;;;;;;;17.26;100.00;101520.72;5052707;28;20037;-64
2022/07/31 04:31:58;;;;;;;24.88;14.73;;;;;;;17.29;100.00;101520.66;5052953;28;20820;-64
2022/07/31 04:34:24;;;;;;;23.90;13.50;;;;;;;17.27;100.00;101517.16;5052933;28;20055;-65
2022/07/31 04:36:49;;;;;;;23.55;13.45;;;;;;;17.25;100.00;101514.47;5052741;28;20041;-63
2022/07/31 04:39:15;;;;;;;23.65;13.90;;;;;;;17.21;100.00;101527.88;5052852;28;20078;-64
2022/07/31 04:41:40;;;;;;;22.85;13.27;;;;;;;17.25;100.00;101518.94;5052639;28;20021;-64
2022/07/31 04:44:05;;;;;;;22.88;13.07;;;;;;;17.22;100.00;101525.19;5053188;28;20050;-64
2022/07/31 04:46:31;;;;;;;23.50;12.35;;;;;;;17.26;100.00;101520.72;5052534;28;20074;-65
2022/07/31 04:48:56;;;;;;;23.77;12.90;;;;;;;17.21;100.00;101522.53;5052865;28;20384;-65
2022/07/31 04:51:23;;;;;;;24.08;12.35;;;;;;;17.18;100.00;101519.91;5052705;28;20029;-65
2022/07/31 04:53:49;;;;;;;23.10;12.43;;;;;;;17.19;100.00;101519.03;5052495;28;20045;-64
2022/07/31 04:56:32;;;;;;;23.38;11.82;;;;;;;17.20;100.00;101513.66;5052647;28;20051;-64
2022/07/31 04:58:59;;;;;;;22.70;11.77;;;;;;;17.26;100.00;101515.38;5052438;28;20029;-65
2022/07/31 05:01:25;;;;;;;20.80;10.70;;;;;;;17.28;100.00;101516.22;5052609;28;20033;-65
2022/07/31 05:03:50;;;;;;;21.52;10.75;;;;;;;17.29;100.00;101517.13;5052378;28;20151;-65
2022/07/31 05:06:16;;;;;;;22.50;10.50;;;;;;;17.29;100.00;101514.47;5057068;28;20040;-65
2022/07/31 05:08:41;;;;;;;22.65;10.88;;;;;;;17.23;100.00;101520.75;5059280;28;20372;-64
2022/07/31 05:11:22;;;;;;;22.67;11.23;;;;;;;17.20;100.00;101521.66;5058958;28;20029;-65
2022/07/31 05:13:53;;;;;;;22.35;10.50;;;;;;;17.21;100.00;101517.19;5056358;28;20021;-65
2022/07/31 05:16:19;;;;;;;21.75;10.48;;;;;;;17.23;100.00;101502.94;5059208;28;20117;-65
2022/07/31 05:18:45;;;;;;;19.88;9.45;;;;;;;17.25;100.00;101503.78;5059081;28;20021;-64
2022/07/31 05:21:15;;;;;;;21.13;9.68;;;;;;;17.30;100.00;101503.75;5059054;28;20021;-64
2022/07/31 05:23:42;;;;;;;21.13;9.40;;;;;;;17.33;100.00;101506.38;5055533;28;20025;-65
2022/07/31 05:26:09;;;;;;;20.63;9.00;;;;;;;17.33;100.00;101506.38;5055298;28;20040;-65
2022/07/31 05:28:35;;;;;;;19.80;8.32;;;;;;;17.30;100.00;101514.44;5058991;28;20021;-65
2022/07/31 05:31:01;;;;;;;21.77;9.18;;;;;;;17.30;100.00;101501.06;5058663;28;20036;-65
2022/07/31 05:33:27;;;;;;;20.10;8.23;;;;;;;17.24;100.00;101501.13;5059103;28;20031;-65
2022/07/31 05:35:53;;;;;;;20.75;8.52;;;;;;;17.30;100.00;101495.72;5058957;28;20433;-65
2022/07/31 05:38:19;;;;;;;19.80;8.43;;;;;;;17.30;100.00;101490.38;5058859;28;20053;-64
2022/07/31 05:40:44;;;;;;;23.80;7.78;;;;;;;17.22;100.00;101487.78;5058963;28;20443;-68
2022/07/31 05:43:09;;;;;;;19.15;7.40;;;;;;;17.16;100.00;101492.34;5058668;28;20033;-65
2022/07/31 05:45:35;;;;;;;18.48;7.60;;;;;;;17.20;100.00;101494.09;5058895;28;20105;-65
2022/07/31 05:48:00;;;;;;;19.88;7.65;;;;;;;17.24;100.00;101495.78;5059222;28;20548;-64
2022/07/31 05:50:26;;;;;;;20.08;7.53;;;;;;;17.30;100.00;101501.06;5058638;28;20534;-65
2022/07/31 05:52:51;;;;;;;19.90;7.10;;;;;;;17.33;100.00;101505.47;5058638;28;20025;-65
2022/07/31 05:55:16;;;;;;;19.77;7.40;;;;;;;17.38;100.00;101501.84;5058783;28;20088;-64
2022/07/31 05:57:42;;;;;;;19.75;7.63;;;;;;;17.42;100.00;101508.91;5058629;28;20078;-67
2022/07/31 06:00:09;;;;;;;18.63;7.00;;;;;;;17.45;100.00;101499.09;5058879;28;20095;-65
2022/07/31 06:02:34;;;;;;;19.13;6.85;;;;;;;17.50;100.00;101500.78;5058795;28;20048;-65
2022/07/31 06:05:01;;;;;;;19.08;7.28;;;;;;;17.57;100.00;101499.78;5051715;28;20433;-65
2022/07/31 06:07:26;;;;;;;17.92;6.82;;;;;;;17.60;100.00;101497.09;5054426;28;20100;-65
2022/07/31 06:09:52;;;;;;;18.20;6.60;;;;;;;17.58;100.00;101495.34;5055048;28;20455;-64
2022/07/31 06:12:18;;;;;;;18.15;6.38;;;;;;;17.60;100.00;101498.88;5054151;28;20481;-65
2022/07/31 06:14:44;;;;;;;18.77;6.55;;;;;;;17.66;100.00;101505.91;5051833;28;20023;-66
2022/07/31 06:17:09;;;;;;;18.13;6.70;;;;;;;17.67;100.00;101497.88;5049942;28;20025;-65
2022/07/31 06:19:35;;;;;;;19.00;6.85;;;;;;;17.67;100.00;101497.88;5047918;28;20029;-66
2022/07/31 06:22:00;;;;;;;18.70;6.47;;;;;;;17.75;100.00;101503.09;5051202;28;20021;-66
2022/07/31 06:24:25;;;;;;;18.65;6.70;;;;;;;17.77;100.00;101495.94;5051733;28;20395;-66
2022/07/31 06:26:56;;;;;;;19.33;6.85;;;;;;;17.76;100.00;101492.38;5052184;28;20539;-65
2022/07/31 06:29:21;;;;;;;19.08;6.53;;;;;;;17.83;100.00;101492.31;5048750;28;20120;-65
2022/07/31 06:31:47;;;;;;;19.08;6.55;;;;;;;17.84;100.00;101494.03;5050546;28;20112;-65
2022/07/31 06:34:12;;;;;;;18.20;6.40;;;;;;;17.89;100.00;101485.06;5051255;28;20025;-65
2022/07/31 06:36:37;;;;;;;19.98;7.10;;;;;;;17.91;100.00;101491.31;5053053;28;20020;-65
2022/07/31 06:39:04;;;;;;;19.65;6.65;;;;;;;17.98;100.00;101497.41;5053180;28;20104;-65
2022/07/31 06:41:45;;;;;;;19.13;6.63;;;;;;;18.05;100.00;101493.75;5052946;28;20109;-65
2022/07/31 06:44:11;;;;;;;20.77;7.17;;;;;;;18.07;100.00;101485.69;5052675;28;20494;-65
2022/07/31 06:46:36;;;;;;;19.05;7.00;;;;;;;18.12;100.00;101489.19;5051407;28;20276;-66
2022/07/31 06:49:02;;;;;;;19.23;6.55;;;;;;;18.12;100.00;101492.72;5052736;28;20028;-66
2022/07/31 06:51:27;;;;;;;19.73;7.10;;;;;;;18.21;100.00;101497.03;5052546;28;20505;-65
2022/07/31 06:53:52;;;;;;;19.17;6.68;;;;;;;18.35;100.00;101496.81;5048672;28;20564;-65
2022/07/31 06:56:17;;;;;;;21.00;7.32;;;;;;;18.39;100.00;101492.28;5053276;28;20033;-65
2022/07/31 06:58:43;;;;;;;20.52;7.18;;;;;;;18.46;100.00;101489.50;5052797;28;20444;-65
2022/07/31 07:01:08;;;;;;;20.02;7.38;;;;;;;18.43;100.00;101497.53;5053203;28;20025;-65
2022/07/31 07:03:33;;;;;;;20.50;7.40;;;;;;;18.45;100.00;101493.06;5052337;28;20056;-65
2022/07/31 07:05:59;;;;;;;20.70;7.35;;;;;;;18.62;100.00;101487.41;5052097;28;20115;-64
2022/07/31 07:08:24;;;;;;;20.33;7.78;;;;;;;18.64;100.00;101498.97;5052810;28;20080;-65
2022/07/31 07:10:50;;;;;;;20.27;7.65;;;;;;;18.67;100.00;101491.75;5052536;28;20033;-65
2022/07/31 07:13:15;;;;;;;21.30;7.50;;;;;;;18.69;100.00;101490.84;5053004;28;20483;-65
2022/07/31 07:15:40;;;;;;;19.98;8.27;;;;;;;18.67;100.00;101495.34;5052276;28;20021;-64
2022/07/31 07:18:06;;;;;;;21.10;8.40;;;;;;;18.78;100.00;101495.13;5052492;28;20443;-64
2022/07/31 07:20:32;;;;;;;21.92;8.70;;;;;;;18.90;100.00;101502.06;5051945;28;20032;-64
2022/07/31 07:22:57;;;;;;;21.45;9.32;;;;;;;19.10;100.00;101488.25;5052604;28;20027;-64
2022/07/31 07:25:22;;;;;;;21.63;8.95;;;;;;;19.35;100.00;101493.97;5052324;28;20025;-65
2022/07/31 07:27:48;;;;;;;21.48;9.15;;;;;;;19.50;100.00;101493.66;5052037;28;20058;-64
2022/07/31 07:30:13;;;;;;;23.23;9.50;;;;;;;19.66;100.00;101493.31;5052002;28;20036;-64
2022/07/31 07:32:38;;;;;;;21.80;10.43;;;;;;;19.63;100.00;101490.66;5051973;28;20029;-64
2022/07/31 07:35:05;;;;;;;22.73;10.48;;;;;;;19.70;100.00;101481.56;5050976;28;20033;-64
2022/07/31 07:37:31;;;;;;;23.15;10.48;;;;;;;19.64;100.00;101484.38;5051991;28;20430;-64
2022/07/31 07:39:57;;;;;;;22.38;10.32;;;;;;;19.58;100.00;101479.19;5052305;28;20025;-64
2022/07/31 07:42:22;;;;;;;23.58;11.73;;;;;;;19.45;100.00;101478.56;5052059;28;20075;-64
2022/07/31 07:44:48;;;;;;;22.42;10.80;;;;;;;19.57;100.00;101481.00;5051534;28;20033;-64
2022/07/31 07:47:13;;;;;;;22.98;10.82;;;;;;;19.75;100.00;101476.13;5051800;28;20033;-64
2022/07/31 07:49:39;;;;;;;23.90;12.00;;;;;;;19.88;100.00;101482.06;5049188;28;20078;-64
2022/07/31 07:52:04;;;;;;;22.33;10.63;;;;;;;19.85;100.00;101485.72;5051603;28;20056;-64
2022/07/31 07:54:29;;;;;;;23.67;11.52;;;;;;;19.77;100.00;101469.78;5051678;28;20132;-64
2022/07/31 07:56:55;;;;;;;23.27;10.98;;;;;;;19.92;100.00;101489.13;5052744;28;20435;-64
2022/07/31 07:59:21;;;;;;;22.02;10.43;;;;;;;20.01;100.00;101483.56;5049413;28;20029;-64
2022/07/31 08:01:46;;;;;;;23.30;11.32;;;;;;;20.05;100.00;101479.84;5053061;28;20028;-64
2022/07/31 08:04:11;;;;;;;22.33;11.25;;;;;;;20.07;100.00;101488.75;5053201;28;20146;-64
2022/07/31 08:06:37;;;;;;;21.92;10.82;;;;;;;20.10;100.00;101487.81;5053707;28;20107;-64
2022/07/31 08:09:02;;;;;;;22.88;11.02;;;;;;;20.02;100.00;101479.94;5049296;28;20482;-70
2022/07/31 08:11:28;;;;;;;21.83;10.82;;;;;;;20.26;100.00;101486.50;5051322;28;20514;-65
2022/07/31 08:13:54;;;;;;;22.38;11.05;;;;;;;20.51;100.00;101481.34;5051825;28;20025;-65
2022/07/31 08:16:20;;;;;;;22.70;11.50;;;;;;;20.62;100.00;101485.53;5051352;28;20487;-66
2022/07/31 08:18:47;;;;;;;24.25;11.05;;;;;;;20.79;100.00;101477.91;5051337;28;20352;-66
2022/07/31 08:21:12;;;;;;;22.35;10.70;;;;;;;20.75;100.00;101481.66;5051401;28;20067;-65
2022/07/31 08:23:37;;;;;;;23.63;11.55;;;;;;;20.66;100.00;101476.47;5051080;28;20122;-65
2022/07/31 08:26:03;;;;;;;22.52;11.15;;;;;;;20.65;100.00;101480.97;5051315;28;20456;-65
2022/07/31 08:28:28;;;;;;;22.27;11.35;;;;;;;20.68;100.00;101478.22;5051000;28;20040;-65
2022/07/31 08:30:54;;;;;;;22.75;10.88;;;;;;;20.78;100.00;101476.19;5051249;28;20032;-64
2022/07/31 08:33:20;;;;;;;21.88;11.13;;;;;;;20.73;100.00;101472.72;5051064;28;20021;-65
2022/07/31 08:35:45;;;;;;;22.48;10.50;;;;;;;20.67;100.00;101467.53;5051004;28;20043;-65
2022/07/31 08:38:11;;;;;;;22.73;10.88;;;;;;;20.71;100.00;101486.19;5050419;28;20021;-65
2022/07/31 08:40:37;;;;;;;22.45;11.15;;;;;;;20.67;100.00;101480.97;5050773;28;20027;-65
2022/07/31 08:43:03;;;;;;;21.85;10.57;;;;;;;20.71;100.00;101483.50;5051233;28;20078;-65
2022/07/31 08:45:30;;;;;;;23.17;11.15;;;;;;;20.62;100.00;101488.22;5045824;28;20422;-65
2022/07/31 08:47:59;;;;;;;22.17;10.77;;;;;;;20.48;100.00;101484.09;5050185;28;20559;-65
2022/07/31 08:50:25;;;;;;;21.65;10.80;;;;;;;20.53;100.00;101475.91;5050465;28;20519;-64
2022/07/31 08:52:53;;;;;;;21.65;10.82;;;;;;;20.51;100.00;101470.59;5050602;28;20028;-65
2022/07/31 08:55:21;;;;;;;22.35;11.07;;;;;;;20.50;100.00;101487.66;5050987;28;20049;-66
2022/07/31 08:57:47;;;;;;;20.65;10.55;;;;;;;20.52;100.00;101482.25;5050590;28;20116;-66
2022/07/31 09:00:16;;;;;;;22.10;10.55;;;;;;;20.54;100.00;101486.63;5050935;28;20107;-65
2022/07/31 09:02:42;;;;;;;22.45;11.00;;;;;;;20.49;100.00;101493.03;5047340;28;20722;-65
2022/07/31 09:05:08;;;;;;;21.65;10.65;;;;;;;20.57;100.00;101484.78;5050300;28;20033;-65
2022/07/31 09:07:34;;;;;;;21.98;10.52;;;;;;;20.65;100.00;101488.13;5049895;28;20044;-65
2022/07/31 09:09:59;;;;;;;21.73;10.45;;;;;;;20.81;100.00;101481.47;5050663;28;20064;-65
2022/07/31 09:12:29;;;;;;;20.63;9.98;;;;;;;21.02;100.00;101481.75;5050842;28;20056;-66
2022/07/31 09:14:55;;;;;;;21.45;10.07;;;;;;;21.18;100.00;101464.25;5049822;28;20123;-66
2022/07/31 09:17:33;;;;;;;21.88;10.40;;;;;;;21.13;100.00;101462.63;5047102;28;20048;-66
2022/07/31 09:20:00;;;;;;;20.80;9.82;;;;;;;21.34;100.00;101469.16;5046207;28;20044;-65
2022/07/31 09:22:28;;;;;;;20.83;9.20;;;;;;;21.23;100.00;101477.53;5047480;28;20094;-65
2022/07/31 09:25:10;;;;;;;20.02;9.50;;;;;;;21.38;100.00;101468.16;5047257;28;20028;-66
2022/07/31 09:27:36;;;;;;;22.25;10.02;;;;;;;21.54;100.00;101456.00;5046777;28;20423;-66
2022/07/31 09:30:01;;;;;;;20.75;9.60;;;;;;;21.83;100.00;101473.03;5046634;28;20029;-67
2022/07/31 09:32:27;;;;;;;20.88;9.30;;;;;;;21.82;100.00;101467.69;5048181;28;20025;-66
2022/07/31 09:34:52;;;;;;;21.10;9.38;;;;;;;21.90;100.00;101471.88;5047567;28;20103;-66
2022/07/31 09:37:20;;;;;;;20.67;9.30;;;;;;;21.96;100.00;101465.44;5047380;28;20033;-65
2022/07/31 09:39:50;;;;;;;20.52;9.63;;;;;;;22.08;100.00;101472.19;5047241;28;20490;-65
2022/07/31 09:42:16;;;;;;;21.40;9.23;;;;;;;22.29;100.00;101466.09;5047200;28;20032;-66
2022/07/31 09:44:43;;;;;;;19.55;8.77;;;;;;;22.63;100.00;101466.72;5048286;28;20029;-65
2022/07/31 09:47:29;;;;;;;20.45;8.90;;;;;;;23.25;100.00;101477.91;5046124;28;20056;-64
2022/07/31 09:49:59;;;;;;;20.05;8.57;;;;;;;23.36;100.00;101469.38;5047603;28;20539;-67
2022/07/31 09:52:27;;;;;;;20.85;9.18;;;;;;;23.40;100.00;101468.34;5051138;28;20029;-67
2022/07/31 09:55:01;;;;;;;20.92;8.18;;;;;;;23.70;100.00;101468.06;5050249;28;20037;-67
2022/07/31 09:57:26;;;;;;;18.92;7.55;;;;;;;23.72;100.00;101456.28;5050611;28;20021;-66
2022/07/31 09:59:52;;;;;;;19.25;8.02;;;;;;;24.33;100.00;101463.63;5054147;28;20035;-64
2022/07/31 10:02:18;;;;;;;18.92;7.40;;;;;;;25.12;100.00;101461.91;5054117;28;20031;-65
2022/07/31 10:04:47;;;;;;;19.08;7.28;;;;;;;24.92;100.00;101454.75;5054162;28;20029;-65
2022/07/31 10:07:14;;;;;;;18.20;7.00;;;;;;;24.46;100.00;101463.06;5053144;28;20468;-65
2022/07/31 10:09:41;;;;;;;18.42;7.05;;;;;;;24.14;100.00;101457.25;5053461;28;20123;-65
2022/07/31 10:12:12;;;;;;;18.95;7.05;;;;;;;24.18;100.00;101461.56;5055403;28;20434;-64
2022/07/31 10:14:40;;;;;;;19.30;6.80;;;;;;;24.36;100.00;101462.56;5055310;28;20115;-65
2022/07/31 10:17:06;;;;;;;18.48;6.80;;;;;;;24.14;100.00;101465.34;5055500;28;20021;-65
2022/07/31 10:19:35;;;;;;;18.00;6.78;;;;;;;23.55;100.00;101456.03;5054167;28;20076;-65
2022/07/31 10:22:03;;;;;;;17.98;6.93;;;;;;;23.39;100.00;101458.50;5055131;28;20021;-64
2022/07/31 10:24:32;;;;;;;18.42;6.60;;;;;;;23.46;100.00;101443.81;5055063;28;20025;-65
2022/07/31 10:26:58;;;;;;;18.88;6.57;;;;;;;23.63;100.00;101446.69;5055482;28;20031;-65
2022/07/31 10:29:25;;;;;;;17.55;6.50;;;;;;;23.46;100.00;101454.59;5055246;28;20375;-65
2022/07/31 10:31:51;;;;;;;18.77;6.38;;;;;;;23.40;100.00;101444.06;5055120;28;20029;-65
2022/07/31 10:34:17;;;;;;;17.48;6.43;;;;;;;23.75;100.00;101444.44;5055499;28;20021;-65
2022/07/31 10:36:47;;;;;;;17.08;6.20;;;;;;;23.77;100.00;101442.56;5055015;28;20049;-64
2022/07/31 10:39:37;;;;;;;16.90;6.00;;;;;;;23.88;100.00;101437.63;5051227;28;20067;-65
2022/07/31 10:42:31;;;;;;;16.83;5.90;;;;;;;24.16;100.00;101433.75;5054102;28;20506;-65
2022/07/31 10:45:07;;;;;;;17.65;6.00;;;;;;;24.25;100.00;101441.47;5053089;28;20071;-65
2022/07/31 10:47:32;;;;;;;18.20;5.90;;;;;;;24.49;100.00;101452.13;5054759;28;20108;-65
2022/07/31 10:49:58;;;;;;;16.45;5.82;;;;;;;24.22;100.00;101435.28;5053228;28;20133;-65
2022/07/31 10:52:31;;;;;;;17.45;6.13;;;;;;;23.87;100.00;101441.28;5054975;28;20025;-64
2022/07/31 10:55:05;;;;;;;17.85;6.10;;;;;;;23.46;100.00;101428.53;5054548;28;20037;-65
2022/07/31 10:57:32;;;;;;;18.20;5.90;;;;;;;23.36;100.00;101426.25;5054852;28;20430;-65
2022/07/31 11:00:12;;;;;;;18.08;5.80;;;;;;;23.33;100.00;101428.13;5054688;28;20028;-64
2022/07/31 11:02:38;;;;;;;17.30;5.53;;;;;;;23.41;100.00;101429.66;5054546;28;20474;-65
2022/07/31 11:05:08;;;;;;;15.52;5.60;;;;;;;23.62;100.00;101430.56;5052833;28;20033;-65